Time;durP1;ratioP1;P1;durP2;ratioP2;P2;SDS_P1;SDS_P2;PMS_P1;PMS_P2;Temp;Humidity;BMP_temperature;BMP_pressure;BME280_temperature;BME280_humidity;BME280_pressure;Samples;Min_cycle;Max_cycle;Signal;HPM_P1;HPM_P2
2021/11/07 00:05:04;;;;;;;15.70;12.30;;;4.50;99.90;;;;;;5040882;28;20275;-78
2021/11/07 00:07:45;;;;;;;17.80;12.70;;;4.50;99.90;;;;;;5040456;28;20239;-78
2021/11/07 00:10:20;;;;;;;17.20;12.77;;;4.60;99.90;;;;;;5040791;28;20207;-78
2021/11/07 00:12:48;;;;;;;15.80;12.53;;;4.60;99.90;;;;;;5041034;28;20279;-78
2021/11/07 00:15:16;;;;;;;18.40;13.27;;;4.60;99.90;;;;;;5042210;28;20224;-79
2021/11/07 00:17:49;;;;;;;18.87;13.37;;;4.60;99.90;;;;;;5040257;28;20173;-78
2021/11/07 00:20:34;;;;;;;18.80;13.57;;;4.60;99.90;;;;;;5041146;28;20187;-78
2021/11/07 00:25:45;;;;;;;19.90;14.07;;;4.70;99.90;;;;;;5041166;28;20202;-78
2021/11/07 00:28:21;;;;;;;18.67;13.50;;;4.70;99.90;;;;;;5041423;28;20210;-78
2021/11/07 00:30:57;;;;;;;19.97;14.20;;;4.80;99.90;;;;;;5044191;28;20227;-78
2021/11/07 00:33:35;;;;;;;20.73;14.50;;;4.80;99.90;;;;;;5034803;28;20177;-78
2021/11/07 00:38:48;;;;;;;19.57;12.73;;;4.70;99.90;;;;;;5052593;28;20183;-78
2021/11/07 00:42:07;;;;;;;15.23;11.63;;;4.70;99.90;;;;;;5051636;28;20197;-78
2021/11/07 00:44:11;;;;;;;30.00;17.10;;;4.60;99.90;;;;;;5030703;28;20198;-78
2021/11/07 00:49:12;;;;;;;29.83;17.67;;;4.50;99.90;;;;;;5042154;28;20179;-78
2021/11/07 00:56:41;;;;;;;21.27;13.90;;;4.50;99.90;;;;;;5039675;28;20741;-78
2021/11/07 01:01:36;;;;;;;23.03;15.10;;;4.50;99.90;;;;;;5034855;28;20215;-76
2021/11/07 01:04:04;;;;;;;23.60;15.33;;;4.40;99.90;;;;;;5032116;28;20168;-76
2021/11/07 01:06:31;;;;;;;19.93;14.50;;;4.50;99.90;;;;;;5033636;28;20183;-77
2021/11/07 01:08:57;;;;;;;22.47;15.77;;;4.50;99.90;;;;;;5016624;28;20180;-76
2021/11/07 01:11:23;;;;;;;24.57;16.13;;;4.60;99.90;;;;;;5015471;28;20558;-77
2021/11/07 01:13:49;;;;;;;26.60;17.77;;;4.60;99.90;;;;;;5015383;28;20199;-77
2021/11/07 01:16:16;;;;;;;24.73;16.57;;;4.70;99.90;;;;;;5015931;28;20189;-77
2021/11/07 01:18:42;;;;;;;25.77;17.20;;;4.70;99.90;;;;;;5015614;28;20206;-77
2021/11/07 01:21:11;;;;;;;26.03;17.50;;;4.70;99.90;;;;;;5033408;28;20185;-77
2021/11/07 01:23:44;;;;;;;32.53;19.03;;;4.70;99.90;;;;;;5033403;28;20176;-77
2021/11/07 01:26:25;;;;;;;31.63;19.90;;;4.80;99.90;;;;;;5033430;28;20266;-77
2021/11/07 01:28:58;;;;;;;28.57;18.67;;;4.80;99.90;;;;;;5015764;28;20548;-77
2021/11/07 01:31:25;;;;;;;30.77;19.83;;;4.80;99.90;;;;;;5033127;28;20208;-77
2021/11/07 01:33:52;;;;;;;29.67;19.37;;;4.80;99.90;;;;;;5015426;28;20180;-77
2021/11/07 01:36:28;;;;;;;31.50;20.37;;;4.70;99.90;;;;;;5033332;28;20566;-77
2021/11/07 01:39:36;;;;;;;33.57;20.50;;;4.80;99.90;;;;;;5015534;28;20226;-77
2021/11/07 01:44:23;;;;;;;36.07;20.73;;;4.90;99.90;;;;;;5033081;28;20191;-77
2021/11/07 01:46:52;;;;;;;35.70;22.07;;;4.90;99.90;;;;;;5032725;28;20676;-76
2021/11/07 01:49:24;;;;;;;32.70;20.67;;;4.80;99.90;;;;;;5032885;28;20181;-77
2021/11/07 01:51:59;;;;;;;36.17;22.13;;;4.80;99.90;;;;;;5014878;28;20580;-77
2021/11/07 01:54:27;;;;;;;33.13;21.20;;;4.80;99.90;;;;;;5032955;28;20639;-77
2021/11/07 01:56:53;;;;;;;34.73;21.23;;;4.90;99.90;;;;;;5033135;28;20170;-76
2021/11/07 01:59:19;;;;;;;32.33;21.03;;;4.90;99.90;;;;;;5032835;28;20598;-77
2021/11/07 02:01:54;;;;;;;34.07;22.53;;;4.90;99.90;;;;;;5032694;28;20202;-77
2021/11/07 02:04:21;;;;;;;35.77;22.20;;;4.80;99.90;;;;;;5015506;28;20240;-77
2021/11/07 02:06:46;;;;;;;33.90;21.73;;;4.80;99.90;;;;;;5032749;28;20253;-77
2021/11/07 02:09:12;;;;;;;35.17;21.93;;;4.80;99.90;;;;;;5014971;28;20272;-76
2021/11/07 02:11:38;;;;;;;33.97;21.37;;;4.80;99.90;;;;;;5032645;28;20227;-77
2021/11/07 02:14:06;;;;;;;32.70;20.13;;;4.90;99.90;;;;;;5032740;28;20299;-77
2021/11/07 02:16:31;;;;;;;32.63;20.97;;;4.80;99.90;;;;;;5014921;28;20653;-77
2021/11/07 02:18:57;;;;;;;31.37;20.33;;;4.80;99.90;;;;;;5032791;28;20200;-77
2021/11/07 02:21:23;;;;;;;34.20;20.20;;;4.90;99.90;;;;;;5032347;28;20198;-77
2021/11/07 02:23:49;;;;;;;31.80;20.97;;;4.90;99.90;;;;;;5032517;28;20182;-77
2021/11/07 02:26:15;;;;;;;32.93;20.83;;;4.90;99.90;;;;;;5015823;28;20179;-77
2021/11/07 02:28:44;;;;;;;34.27;21.10;;;4.80;99.90;;;;;;5018819;28;20254;-77
2021/11/07 02:31:18;;;;;;;34.07;21.43;;;4.90;99.90;;;;;;5036502;28;20299;-77
2021/11/07 02:33:45;;;;;;;33.47;21.60;;;4.90;99.90;;;;;;5036303;28;20254;-77
2021/11/07 02:36:13;;;;;;;33.93;21.80;;;5.00;99.90;;;;;;5016735;28;20235;-77
2021/11/07 02:38:39;;;;;;;33.00;21.60;;;5.00;99.90;;;;;;5018671;28;20189;-77
2021/11/07 02:41:06;;;;;;;35.77;22.23;;;5.00;99.90;;;;;;5018149;28;20234;-77
2021/11/07 02:43:43;;;;;;;33.93;22.27;;;5.00;99.90;;;;;;5036483;28;20261;-77
2021/11/07 02:46:15;;;;;;;37.57;24.13;;;5.00;99.90;;;;;;5036354;28;20176;-77
2021/11/07 02:48:46;;;;;;;35.47;23.40;;;5.00;99.90;;;;;;5036322;28;20177;-77
2021/11/07 02:51:12;;;;;;;36.23;23.03;;;4.80;99.90;;;;;;5036008;28;20196;-77
2021/11/07 02:53:39;;;;;;;36.33;22.57;;;4.90;99.90;;;;;;5018567;28;20657;-76
2021/11/07 02:56:05;;;;;;;36.40;24.47;;;5.00;99.90;;;;;;5018214;28;20227;-77
2021/11/07 02:58:32;;;;;;;39.40;24.83;;;4.80;99.90;;;;;;5035929;28;20668;-77
2021/11/07 03:00:59;;;;;;;36.40;24.00;;;4.70;99.90;;;;;;5036158;28;20174;-77
2021/11/07 03:03:26;;;;;;;36.77;24.77;;;4.60;99.90;;;;;;5036019;28;20670;-77
2021/11/07 03:05:51;;;;;;;35.77;23.17;;;4.60;99.90;;;;;;5035904;28;20184;-76
2021/11/07 03:08:17;;;;;;;36.63;23.77;;;4.70;99.90;;;;;;5018222;28;20177;-77
2021/11/07 03:10:43;;;;;;;37.83;24.47;;;4.70;99.90;;;;;;5035802;28;20212;-77
2021/11/07 03:13:13;;;;;;;37.47;24.60;;;4.80;99.90;;;;;;5014690;28;20199;-77
2021/11/07 03:15:40;;;;;;;37.47;24.03;;;4.80;99.90;;;;;;5035690;28;20176;-76
2021/11/07 03:18:07;;;;;;;38.77;24.07;;;4.90;99.90;;;;;;5018061;28;20245;-77
2021/11/07 03:20:34;;;;;;;39.97;23.57;;;4.80;99.90;;;;;;5018098;28;20176;-77
2021/11/07 03:23:00;;;;;;;37.43;24.07;;;4.90;99.90;;;;;;5032792;28;20618;-77
2021/11/07 03:25:26;;;;;;;41.03;24.97;;;4.90;99.90;;;;;;5034637;28;20186;-77
2021/11/07 03:27:52;;;;;;;39.67;25.37;;;4.90;99.90;;;;;;5033475;28;20650;-77
2021/11/07 03:30:55;;;;;;;39.70;24.13;;;4.90;99.90;;;;;;5033508;28;20624;-77
2021/11/07 03:33:32;;;;;;;38.07;24.27;;;4.90;99.90;;;;;;5017718;28;20328;-77
2021/11/07 03:36:01;;;;;;;38.63;24.03;;;5.00;99.90;;;;;;5035452;28;20166;-76
2021/11/07 03:38:27;;;;;;;37.57;24.17;;;4.90;99.90;;;;;;5016540;28;20183;-77
2021/11/07 03:40:53;;;;;;;38.90;24.23;;;4.80;99.90;;;;;;5017522;28;20181;-77
2021/11/07 03:43:19;;;;;;;36.03;23.40;;;4.70;99.90;;;;;;5035356;28;20207;-77
2021/11/07 03:45:45;;;;;;;38.60;24.13;;;4.60;99.90;;;;;;5035275;28;20551;-76
2021/11/07 03:48:12;;;;;;;34.60;22.87;;;4.50;99.90;;;;;;5017030;28;20189;-77
2021/11/07 03:50:39;;;;;;;40.90;25.30;;;4.50;99.90;;;;;;5035069;28;20213;-76
2021/11/07 03:53:05;;;;;;;41.57;24.87;;;4.30;99.90;;;;;;5017063;28;20216;-77
2021/11/07 03:55:31;;;;;;;38.50;25.03;;;4.20;99.90;;;;;;5035353;28;20266;-76
2021/11/07 03:57:56;;;;;;;38.30;24.20;;;4.30;99.90;;;;;;5035007;28;20176;-77
2021/11/07 04:00:24;;;;;;;40.13;24.40;;;4.20;99.90;;;;;;5035137;28;20653;-76
2021/11/07 04:02:50;;;;;;;42.93;25.40;;;4.20;99.90;;;;;;5035011;28;20268;-76
2021/11/07 04:05:16;;;;;;;46.27;25.83;;;4.20;99.90;;;;;;5034728;28;20185;-76
2021/11/07 04:07:42;;;;;;;38.73;23.00;;;4.30;99.90;;;;;;5034624;28;20179;-76
2021/11/07 04:10:11;;;;;;;39.33;23.80;;;4.30;99.90;;;;;;5034716;28;20182;-76
2021/11/07 04:12:36;;;;;;;42.03;24.57;;;4.20;99.90;;;;;;5034797;28;20282;-76
2021/11/07 04:15:04;;;;;;;34.50;22.83;;;4.20;99.90;;;;;;5034690;28;20309;-76
2021/11/07 04:17:30;;;;;;;39.07;22.43;;;4.30;99.90;;;;;;5034580;28;20582;-76
2021/11/07 04:19:56;;;;;;;39.13;22.33;;;4.20;99.90;;;;;;5034600;28;20261;-76
2021/11/07 04:22:21;;;;;;;37.17;22.50;;;4.40;99.90;;;;;;5034553;28;20225;-76
2021/11/07 04:24:47;;;;;;;34.97;20.20;;;4.40;99.90;;;;;;5034243;28;20203;-76
2021/11/07 04:27:13;;;;;;;35.23;20.60;;;4.40;99.90;;;;;;5034490;28;20175;-77
2021/11/07 04:29:39;;;;;;;37.80;20.53;;;4.30;99.90;;;;;;5034437;28;20177;-76
2021/11/07 04:32:05;;;;;;;36.37;20.67;;;4.30;99.90;;;;;;5016422;28;20213;-76
2021/11/07 04:34:31;;;;;;;37.60;19.07;;;4.30;99.90;;;;;;5016868;28;20183;-76
2021/11/07 04:36:57;;;;;;;33.47;19.20;;;4.30;99.90;;;;;;5034310;28;20680;-76
2021/11/07 04:39:24;;;;;;;38.67;19.10;;;4.40;99.90;;;;;;5033858;28;20172;-76
2021/11/07 04:41:51;;;;;;;34.00;19.43;;;4.40;99.90;;;;;;5015994;28;20206;-77
2021/11/07 04:44:17;;;;;;;33.40;18.60;;;4.20;99.90;;;;;;5034128;28;20260;-77
2021/11/07 04:46:42;;;;;;;34.70;18.47;;;4.30;99.90;;;;;;5034077;28;20204;-77
2021/11/07 04:49:08;;;;;;;34.43;19.80;;;4.30;99.90;;;;;;5033425;28;20179;-76
2021/11/07 04:51:34;;;;;;;36.17;20.13;;;4.40;99.90;;;;;;5033785;28;20262;-77
2021/11/07 04:54:00;;;;;;;34.73;18.93;;;4.30;99.90;;;;;;5016254;28;20175;-77
2021/11/07 04:56:26;;;;;;;33.33;18.93;;;4.40;99.90;;;;;;5033924;28;20548;-77
2021/11/07 04:58:52;;;;;;;34.23;18.90;;;4.40;99.90;;;;;;5033944;28;20167;-77
2021/11/07 05:01:17;;;;;;;31.83;19.07;;;4.40;99.90;;;;;;5031220;28;20207;-77
2021/11/07 05:03:43;;;;;;;34.30;20.40;;;4.40;99.90;;;;;;5033406;28;20176;-77
2021/11/07 05:06:09;;;;;;;35.40;19.00;;;4.30;99.90;;;;;;5033221;28;20179;-76
2021/11/07 05:08:34;;;;;;;32.93;18.23;;;4.30;99.90;;;;;;5014650;28;20256;-77
2021/11/07 05:11:00;;;;;;;32.60;18.10;;;4.40;99.90;;;;;;5032503;28;20249;-77
2021/11/07 05:13:25;;;;;;;34.07;18.87;;;4.50;99.90;;;;;;5033680;28;20248;-77
2021/11/07 05:15:51;;;;;;;31.53;18.73;;;4.50;99.90;;;;;;5033507;28;20179;-77
2021/11/07 05:18:19;;;;;;;35.33;19.07;;;4.50;99.90;;;;;;5013097;28;20177;-78
2021/11/07 05:20:46;;;;;;;35.07;19.17;;;4.60;99.90;;;;;;5034346;28;20195;-77
2021/11/07 05:23:12;;;;;;;34.57;18.77;;;4.60;99.90;;;;;;5015783;28;20203;-77
2021/11/07 05:25:38;;;;;;;44.40;20.67;;;4.60;99.90;;;;;;5033374;28;20225;-77
2021/11/07 05:28:04;;;;;;;36.23;20.93;;;4.60;99.90;;;;;;5033222;28;20181;-77
2021/11/07 05:30:30;;;;;;;43.00;21.43;;;4.60;99.90;;;;;;5015575;28;20252;-77
2021/11/07 05:32:55;;;;;;;43.90;21.57;;;4.50;99.90;;;;;;5050011;22;20199;-78
2021/11/07 05:35:22;;;;;;;45.67;22.50;;;5.00;99.90;;;;;;5014288;28;20735;-76
2021/11/07 05:37:49;;;;;;;40.60;21.27;;;4.40;99.90;;;;;;5034581;28;20566;-77
2021/11/07 05:40:17;;;;;;;45.97;22.67;;;4.40;99.90;;;;;;5033405;28;20577;-77
2021/11/07 05:42:43;;;;;;;44.40;22.37;;;4.30;99.90;;;;;;5021332;28;20172;-77
2021/11/07 05:45:09;;;;;;;48.33;23.87;;;4.40;99.90;;;;;;5014362;28;20212;-77
2021/11/07 05:47:35;;;;;;;43.53;22.67;;;4.30;99.90;;;;;;5014671;28;20175;-76
2021/11/07 05:50:01;;;;;;;44.30;24.03;;;4.30;99.90;;;;;;5014693;28;20183;-77
2021/11/07 05:52:26;;;;;;;44.03;23.33;;;4.30;99.90;;;;;;5012938;28;20169;-77
2021/11/07 05:54:52;;;;;;;37.97;20.63;;;4.50;99.90;;;;;;5009730;28;20671;-77
2021/11/07 05:57:18;;;;;;;31.43;19.20;;;4.40;99.90;;;;;;5022193;28;20182;-77
2021/11/07 05:59:44;;;;;;;34.47;19.53;;;4.40;99.90;;;;;;5031210;28;20178;-77
2021/11/07 06:02:09;;;;;;;34.60;20.30;;;4.40;99.90;;;;;;5012186;28;20175;-78
2021/11/07 06:04:35;;;;;;;33.67;19.50;;;4.40;99.90;;;;;;5031620;28;20204;-76
2021/11/07 06:07:01;;;;;;;34.47;18.93;;;4.30;99.90;;;;;;5025479;28;20261;-77
2021/11/07 06:09:27;;;;;;;34.77;20.47;;;4.50;99.90;;;;;;5022491;28;20234;-77
2021/11/07 06:11:52;;;;;;;34.97;20.27;;;4.40;99.90;;;;;;5011912;28;20196;-78
2021/11/07 06:14:18;;;;;;;30.10;18.60;;;4.40;99.90;;;;;;5029373;28;20273;-77
2021/11/07 06:16:44;;;;;;;34.50;19.47;;;4.30;99.90;;;;;;5020236;28;20644;-77
2021/11/07 06:19:09;;;;;;;36.10;19.83;;;4.40;99.90;;;;;;4995415;28;20180;-77
2021/11/07 06:21:36;;;;;;;33.37;19.33;;;4.40;99.90;;;;;;5013231;28;20648;-77
2021/11/07 06:24:05;;;;;;;30.77;19.30;;;4.40;99.90;;;;;;5021358;28;20674;-77
2021/11/07 06:26:30;;;;;;;37.60;20.63;;;4.30;99.90;;;;;;5013557;28;20180;-77
2021/11/07 06:28:59;;;;;;;36.43;20.97;;;4.40;99.90;;;;;;5019124;28;20225;-76
2021/11/07 06:31:24;;;;;;;37.03;20.60;;;4.40;99.90;;;;;;5012560;28;20195;-77
2021/11/07 06:33:50;;;;;;;39.93;21.83;;;4.30;99.90;;;;;;5012704;28;20212;-77
2021/11/07 06:36:17;;;;;;;41.53;22.37;;;4.30;99.90;;;;;;5012825;28;20307;-77
2021/11/07 06:38:43;;;;;;;37.43;21.70;;;4.40;99.90;;;;;;5004457;28;20718;-77
2021/11/07 06:41:08;;;;;;;43.17;22.40;;;4.40;99.90;;;;;;5019446;28;20262;-77
2021/11/07 06:43:34;;;;;;;44.20;22.87;;;4.40;99.90;;;;;;5013214;28;20709;-76
2021/11/07 06:46:00;;;;;;;45.00;22.97;;;4.40;99.90;;;;;;5012763;28;20666;-76
2021/11/07 06:48:27;;;;;;;42.13;22.43;;;4.50;99.90;;;;;;5012823;28;20628;-77
2021/11/07 06:50:53;;;;;;;46.77;22.97;;;4.50;99.90;;;;;;5012563;28;20287;-76
2021/11/07 06:53:18;;;;;;;46.80;23.87;;;4.50;99.90;;;;;;5012558;28;20266;-77
2021/11/07 06:55:44;;;;;;;43.20;23.73;;;4.40;99.90;;;;;;4995157;28;20181;-77
2021/11/07 06:58:10;;;;;;;46.03;23.90;;;4.50;99.90;;;;;;5012741;28;20184;-76
2021/11/07 07:00:36;;;;;;;43.23;23.50;;;4.40;99.90;;;;;;5012716;28;20181;-77
2021/11/07 07:03:02;;;;;;;49.37;24.97;;;4.30;99.90;;;;;;5012633;28;20269;-77
2021/11/07 07:05:27;;;;;;;52.10;25.63;;;4.20;99.90;;;;;;5012626;28;20205;-75
2021/11/07 07:07:56;;;;;;;48.93;25.03;;;4.30;99.90;;;;;;5012375;28;20280;-77
2021/11/07 07:10:28;;;;;;;47.77;25.27;;;4.20;99.90;;;;;;4994865;28;20224;-76
2021/11/07 07:15:23;;;;;;;46.57;24.13;;;4.30;99.90;;;;;;5036111;28;20284;-77
2021/11/07 07:31:12;;;;;;;49.73;25.87;;;4.20;99.90;;;;;;5036316;28;20743;-77
2021/11/07 07:34:00;;;;;;;48.03;25.80;;;4.10;99.90;;;;;;5035269;28;20215;-76
2021/11/07 07:36:26;;;;;;;50.03;25.47;;;4.00;99.90;;;;;;5035402;28;20241;-76
2021/11/07 07:38:52;;;;;;;49.00;25.00;;;4.10;99.90;;;;;;5035491;28;20687;-77
2021/11/07 07:41:18;;;;;;;49.00;25.43;;;4.20;99.90;;;;;;5034850;28;20173;-77
2021/11/07 07:43:44;;;;;;;47.47;25.20;;;4.10;99.90;;;;;;5035283;28;20690;-77
2021/11/07 07:46:12;;;;;;;47.40;25.97;;;4.00;99.90;;;;;;5017601;28;20560;-77
2021/11/07 07:48:42;;;;;;;49.13;26.40;;;4.00;99.90;;;;;;5018156;28;20558;-76
2021/11/07 07:51:08;;;;;;;46.30;25.83;;;4.10;99.90;;;;;;5035154;28;20246;-77
2021/11/07 07:53:34;;;;;;;45.77;25.63;;;4.10;99.90;;;;;;5017319;28;20189;-76
2021/11/07 07:56:01;;;;;;;51.57;28.00;;;4.30;99.90;;;;;;5035059;28;20587;-76
2021/11/07 07:58:26;;;;;;;51.13;26.57;;;4.30;99.90;;;;;;5016966;28;20566;-76
2021/11/07 08:00:55;;;;;;;52.17;27.73;;;4.20;99.90;;;;;;5010104;28;20188;-77
2021/11/07 08:03:21;;;;;;;50.93;25.80;;;4.10;99.90;;;;;;4998580;28;20204;-77
2021/11/07 08:05:47;;;;;;;47.33;25.97;;;4.10;99.90;;;;;;5022818;28;20614;-77
2021/11/07 08:08:13;;;;;;;49.53;26.37;;;4.20;99.90;;;;;;5009880;28;20195;-77
2021/11/07 08:10:39;;;;;;;47.10;27.30;;;4.30;99.90;;;;;;5013677;28;20204;-77
2021/11/07 08:13:06;;;;;;;51.43;27.97;;;4.40;99.90;;;;;;4995326;28;20230;-77
2021/11/07 08:15:32;;;;;;;48.57;28.00;;;4.50;99.90;;;;;;5017428;28;20182;-77
2021/11/07 08:17:58;;;;;;;47.50;27.67;;;4.60;99.90;;;;;;5018821;28;20736;-77
2021/11/07 08:20:24;;;;;;;52.00;27.13;;;4.50;99.90;;;;;;5019118;28;20172;-77
2021/11/07 08:22:51;;;;;;;51.10;27.57;;;4.50;99.90;;;;;;4997947;28;20183;-77
2021/11/07 08:25:21;;;;;;;46.90;27.63;;;4.60;99.90;;;;;;5039638;28;20193;-76
2021/11/07 08:27:50;;;;;;;46.07;26.90;;;4.70;99.90;;;;;;5014904;28;20187;-77
2021/11/07 08:30:22;;;;;;;47.57;27.23;;;4.60;99.90;;;;;;4998449;28;20193;-77
2021/11/07 08:32:48;;;;;;;43.97;26.03;;;4.70;99.90;;;;;;5023846;28;20180;-78
2021/11/07 08:35:14;;;;;;;49.37;26.30;;;4.70;99.90;;;;;;5020165;28;20212;-77
2021/11/07 08:37:45;;;;;;;42.50;24.87;;;4.70;99.90;;;;;;4996927;28;20184;-76
2021/11/07 08:40:16;;;;;;;39.63;24.90;;;4.70;99.90;;;;;;5021804;28;20315;-77
2021/11/07 09:07:25;;;;;;;40.13;24.43;;;4.40;99.90;;;;;;5014567;28;20223;-77
2021/11/07 09:09:59;;;;;;;38.07;23.63;;;4.50;99.90;;;;;;5022722;28;20191;-77
2021/11/07 09:12:25;;;;;;;39.27;23.47;;;4.50;99.90;;;;;;4999695;28;20203;-76
2021/11/07 09:14:51;;;;;;;36.37;23.90;;;4.50;99.90;;;;;;5025891;28;20220;-76
2021/11/07 09:17:17;;;;;;;38.40;22.77;;;4.50;99.90;;;;;;5033220;28;20188;-76
2021/11/07 09:19:47;;;;;;;36.43;22.00;;;4.40;99.90;;;;;;5044367;28;20187;-77
2021/11/07 09:22:18;;;;;;;35.30;21.70;;;4.30;99.90;;;;;;5018664;28;20539;-76
2021/11/07 09:24:54;;;;;;;34.83;21.57;;;4.40;99.90;;;;;;5031057;28;20194;-76
2021/11/07 09:27:28;;;;;;;33.70;21.13;;;4.60;99.90;;;;;;5007430;28;20193;-76
2021/11/07 09:32:39;;;;;;;33.00;20.47;;;4.50;99.90;;;;;;5032545;28;20205;-76
2021/11/07 09:40:11;;;;;;;32.23;21.73;;;4.60;99.90;;;;;;5025369;28;20196;-76
2021/11/07 09:47:50;;;;;;;33.87;22.20;;;4.60;99.90;;;;;;5012635;28;20179;-78
2021/11/07 09:50:16;;;;;;;36.50;21.80;;;4.70;99.90;;;;;;5018349;28;20177;-77
2021/11/07 09:52:51;;;;;;;34.20;22.00;;;4.80;99.90;;;;;;4999089;28;20179;-77
2021/11/07 09:55:19;;;;;;;34.17;22.53;;;4.70;99.90;;;;;;5012571;28;20194;-76
2021/11/07 09:57:47;;;;;;;34.10;22.73;;;4.80;99.90;;;;;;4998468;28;20237;-77
2021/11/07 10:00:17;;;;;;;35.77;23.60;;;4.80;99.90;;;;;;5033212;28;20540;-77
2021/11/07 10:02:43;;;;;;;33.47;21.90;;;4.90;99.90;;;;;;5032946;28;20588;-77
2021/11/07 10:05:11;;;;;;;43.03;24.87;;;4.80;99.90;;;;;;5033107;28;20199;-77
2021/11/07 10:07:39;;;;;;;36.60;22.63;;;4.90;99.90;;;;;;5032017;28;20231;-77
2021/11/07 10:10:34;;;;;;;35.80;23.00;;;4.80;99.90;;;;;;5032626;28;20172;-77
2021/11/07 10:13:10;;;;;;;34.57;22.80;;;4.90;99.90;;;;;;5030475;28;20235;-75
2021/11/07 10:15:46;;;;;;;37.33;22.70;;;4.90;99.90;;;;;;5015464;28;20175;-76
2021/11/07 10:18:32;;;;;;;36.00;20.87;;;4.90;99.90;;;;;;5015341;28;20264;-77
2021/11/07 10:21:01;;;;;;;32.07;20.67;;;4.90;99.90;;;;;;5012574;28;20179;-77
2021/11/07 10:28:44;;;;;;;33.43;21.47;;;5.10;99.90;;;;;;5032967;28;20242;-76
2021/11/07 10:31:18;;;;;;;32.83;21.10;;;5.10;99.90;;;;;;5032581;28;20202;-77
2021/11/07 10:44:30;;;;;;;30.07;19.97;;;5.30;99.90;;;;;;5032711;28;20610;-76
2021/11/07 10:52:42;;;;;;;26.73;18.37;;;5.60;99.90;;;;;;5025514;28;20187;-76
2021/11/07 10:55:17;;;;;;;23.40;16.90;;;5.70;99.90;;;;;;5036257;28;20599;-77
2021/11/07 10:58:05;;;;;;;21.00;15.13;;;5.70;99.90;;;;;;5036217;28;20703;-77
2021/11/07 11:00:39;;;;;;;23.50;16.20;;;5.90;99.90;;;;;;5035425;28;20565;-76
2021/11/07 11:03:09;;;;;;;20.53;14.70;;;6.00;99.90;;;;;;5036395;28;20186;-78
2021/11/07 11:05:52;;;;;;;23.17;14.47;;;6.10;99.90;;;;;;5018393;28;20213;-75
2021/11/07 11:08:26;;;;;;;17.50;13.90;;;6.20;99.90;;;;;;5033541;28;20180;-76
2021/11/07 11:24:25;;;;;;;15.10;12.17;;;6.90;99.90;;;;;;5016800;28;20213;-77
2021/11/07 11:27:03;;;;;;;14.97;11.60;;;6.80;99.90;;;;;;5004877;28;20260;-77
2021/11/07 11:32:35;;;;;;;12.80;11.17;;;7.10;99.90;;;;;;5027868;28;20213;-77
2021/11/07 11:35:00;;;;;;;13.70;11.20;;;7.10;99.90;;;;;;5031837;28;20229;-76
2021/11/07 11:40:14;;;;;;;12.47;10.67;;;7.20;99.90;;;;;;5031742;28;20186;-77
2021/11/07 11:42:59;;;;;;;14.53;11.17;;;7.20;99.90;;;;;;5021557;28;20159;-77
2021/11/07 11:45:35;;;;;;;9.07;8.10;;;7.30;99.90;;;;;;5035093;28;20700;-76
2021/11/07 11:49:11;;;;;;;10.40;9.13;;;7.50;99.90;;;;;;5017573;28;20182;-76
2021/11/07 11:51:30;;;;;;;8.10;7.30;;;7.50;99.90;;;;;;5026068;28;20735;-78
2021/11/07 11:57:23;;;;;;;7.50;6.77;;;7.70;99.90;;;;;;5035148;28;20544;-77
2021/11/07 12:02:31;;;;;;;6.93;5.77;;;7.90;99.90;;;;;;5029765;28;20232;-77
2021/11/07 12:08:07;;;;;;;5.40;4.90;;;7.90;99.90;;;;;;5031923;28;20194;-78
2021/11/07 12:10:42;;;;;;;6.43;5.83;;;8.10;99.90;;;;;;5016849;28;20202;-77
2021/11/07 12:14:02;;;;;;;7.87;5.83;;;8.10;99.90;;;;;;5032630;28;20194;-77
2021/11/07 12:16:48;;;;;;;6.10;5.50;;;8.20;99.90;;;;;;5031006;28;20247;-77
2021/11/07 12:19:15;;;;;;;6.50;5.90;;;8.30;99.90;;;;;;5012771;28;20178;-77
2021/11/07 12:21:56;;;;;;;5.93;5.40;;;8.40;99.90;;;;;;5025110;28;20179;-77
2021/11/07 12:24:32;;;;;;;8.27;7.47;;;8.40;99.90;;;;;;5008562;28;20213;-78
2021/11/07 12:27:20;;;;;;;9.00;8.17;;;8.40;99.90;;;;;;5066857;22;20256;-84
2021/11/07 12:29:47;;;;;;;9.97;9.03;;;8.40;99.90;;;;;;5009823;28;20182;-84
2021/11/07 12:32:13;;;;;;;10.80;9.67;;;8.60;99.90;;;;;;5031222;28;20234;-84
2021/11/07 12:40:57;;;;;;;9.67;8.53;;;8.50;99.90;;;;;;5038791;28;20677;-84
2021/11/07 12:43:42;;;;;;;11.80;8.53;;;8.60;99.90;;;;;;5027768;28;20202;-85
2021/11/07 12:49:40;;;;;;;7.00;6.30;;;8.70;99.90;;;;;;5026182;28;20190;-83
2021/11/07 12:52:28;;;;;;;7.47;6.00;;;8.60;99.90;;;;;;5035218;28;20243;-84
2021/11/07 12:55:03;;;;;;;6.80;5.43;;;8.60;99.90;;;;;;5021656;28;20267;-85
2021/11/07 12:57:33;;;;;;;8.17;6.67;;;8.60;99.90;;;;;;5022255;28;20738;-85
2021/11/07 13:00:11;;;;;;;7.37;6.67;;;8.70;99.90;;;;;;5022693;28;20174;-85
2021/11/07 13:02:44;;;;;;;7.70;7.00;;;8.70;99.90;;;;;;5040812;28;20591;-84
2021/11/07 13:08:21;;;;;;;8.03;7.23;;;8.70;99.90;;;;;;5037815;28;20182;-84
2021/11/07 13:11:04;;;;;;;7.43;6.73;;;8.70;99.90;;;;;;5037465;28;20192;-84
2021/11/07 13:23:03;;;;;;;6.97;6.37;;;8.70;99.90;;;;;;5038499;28;20245;-84
2021/11/07 13:25:46;;;;;;;7.20;6.50;;;8.80;99.90;;;;;;5032702;28;20199;-83
2021/11/07 13:28:39;;;;;;;7.07;6.37;;;8.90;99.90;;;;;;5037223;28;20182;-85
2021/11/07 13:31:42;;;;;;;5.77;5.27;;;8.80;99.90;;;;;;5039125;28;20202;-86
2021/11/07 13:34:51;;;;;;;4.80;4.40;;;8.70;99.90;;;;;;5017813;28;20696;-86
2021/11/07 13:37:25;;;;;;;4.57;4.13;;;8.70;99.90;;;;;;5001719;28;20248;-85
2021/11/07 13:39:51;;;;;;;4.53;3.77;;;8.90;99.90;;;;;;5039972;28;20186;-85
2021/11/07 13:42:18;;;;;;;3.80;3.50;;;9.00;99.90;;;;;;5039510;28;20185;-84
2021/11/07 13:44:49;;;;;;;4.73;3.37;;;9.10;99.90;;;;;;5036011;28;20240;-86
2021/11/07 13:47:15;;;;;;;3.80;3.37;;;9.10;99.90;;;;;;5013165;28;20769;-86
2021/11/07 13:49:53;;;;;;;6.20;3.67;;;9.10;99.90;;;;;;5032862;28;20253;-86
2021/11/07 13:52:19;;;;;;;3.97;3.50;;;9.10;99.90;;;;;;5015736;28;20194;-86
2021/11/07 13:54:46;;;;;;;4.90;4.40;;;9.00;99.90;;;;;;5015433;28;20178;-87
2021/11/07 13:57:12;;;;;;;4.33;3.60;;;9.10;99.90;;;;;;5032646;28;20677;-86
2021/11/07 13:59:44;;;;;;;3.67;3.37;;;9.10;99.90;;;;;;5015415;28;20253;-86
2021/11/07 14:02:17;;;;;;;3.90;3.07;;;9.10;99.90;;;;;;5033943;28;20256;-86
2021/11/07 14:04:44;;;;;;;3.77;3.47;;;9.20;99.90;;;;;;5016528;28;20261;-86
2021/11/07 14:07:16;;;;;;;3.97;3.27;;;9.20;99.90;;;;;;5016134;28;20202;-87
2021/11/07 14:10:04;;;;;;;3.07;2.53;;;9.10;99.90;;;;;;5015924;28;20206;-86
2021/11/07 14:12:55;;;;;;;2.70;2.50;;;9.10;99.90;;;;;;5033921;28;20190;-86
2021/11/07 14:15:32;;;;;;;2.33;2.13;;;9.10;99.90;;;;;;5015977;28;20181;-87
2021/11/07 14:18:23;;;;;;;3.50;2.37;;;9.10;99.90;;;;;;5015961;28;20182;-86
2021/11/07 14:21:04;;;;;;;2.43;2.23;;;9.20;99.90;;;;;;5033913;28;20175;-87
2021/11/07 14:23:43;;;;;;;3.50;2.60;;;9.30;99.90;;;;;;5019487;28;20172;-85
2021/11/07 14:26:17;;;;;;;2.77;2.57;;;9.30;99.90;;;;;;5019893;28;20694;-87
2021/11/07 14:28:58;;;;;;;2.93;2.50;;;9.30;99.90;;;;;;5020169;28;20526;-86
2021/11/07 14:31:33;;;;;;;3.17;2.40;;;9.20;99.90;;;;;;5037188;28;20197;-87
2021/11/07 14:34:11;;;;;;;3.00;2.80;;;9.20;99.90;;;;;;5037609;28;20188;-86
2021/11/07 14:39:35;;;;;;;2.90;2.60;;;9.20;99.90;;;;;;5037530;28;20300;-86
2021/11/07 14:45:10;;;;;;;3.13;2.50;;;9.20;99.90;;;;;;5025625;28;20164;-85
2021/11/07 14:52:55;;;;;;;4.07;3.67;;;9.10;99.90;;;;;;5037201;28;20175;-86
2021/11/07 14:55:28;;;;;;;3.40;3.10;;;9.10;99.90;;;;;;5036974;28;20230;-85
2021/11/07 15:00:59;;;;;;;4.20;3.80;;;9.10;99.90;;;;;;5037225;28;20266;-87
2021/11/07 15:03:30;;;;;;;3.87;3.57;;;9.00;99.90;;;;;;5037046;28;20712;-85
2021/11/07 15:08:55;;;;;;;5.13;4.63;;;9.10;99.90;;;;;;5037382;28;20262;-86
2021/11/07 15:16:32;;;;;;;4.57;4.10;;;9.10;99.90;;;;;;5036752;28;20194;-82
2021/11/07 15:19:04;;;;;;;4.93;4.43;;;9.20;99.90;;;;;;5017027;28;20538;-82
2021/11/07 15:24:20;;;;;;;7.73;5.43;;;9.30;99.90;;;;;;5044423;28;20183;-82
2021/11/07 15:26:57;;;;;;;5.73;4.00;;;9.30;99.90;;;;;;5038231;28;20215;-82
2021/11/07 15:29:32;;;;;;;5.63;4.20;;;9.40;99.90;;;;;;5028767;28;20185;-81
2021/11/07 15:32:08;;;;;;;4.43;4.03;;;9.30;99.90;;;;;;5023471;28;20183;-79
2021/11/07 15:34:40;;;;;;;3.50;3.20;;;9.30;99.90;;;;;;5021707;28;20198;-79
2021/11/07 15:37:11;;;;;;;2.93;2.70;;;9.20;99.90;;;;;;5021272;28;20226;-78
2021/11/07 15:39:48;;;;;;;3.73;2.90;;;9.20;99.90;;;;;;5010127;28;20557;-77
2021/11/07 15:42:16;;;;;;;3.30;3.00;;;9.30;99.90;;;;;;5036368;28;20228;-78
2021/11/07 15:45:02;;;;;;;3.97;3.57;;;9.30;99.90;;;;;;5025416;28;20585;-78
2021/11/07 15:47:39;;;;;;;5.30;4.47;;;9.20;99.90;;;;;;5029122;28;20715;-78
2021/11/07 15:52:50;;;;;;;5.73;4.57;;;9.10;99.90;;;;;;5028991;28;20194;-78